Latest Weather Observations for Geraldton Airport

IDW60801

Issued at 9:35 pm WST Saturday 25 October 2014 (issued every 30 minutes, with the page automatically refreshed every 10 minutes)

About weather observations | Map of weather stations | Latest weather observations for WA | Other Formats
Station Details ID: 008315 Name: GERALDTON AIRPORT Lat: -28.80 Lon: 114.70 Height: 29.7 m
Data from the previous 72 hours. | See also: Recent months at Geraldton Airport
Date/Time
WST
Temp
°C
App
Temp
°C
Dew
Point
Rel
Hum
%
Delta-T
°C
Wind Press
QNH
hPa
Press
MSL
hPa
Rain
since 9 am
mm
Dir
 
Spd
km/h
Gust
km/h
Spd
kts
Gust
kts
25/09:30pm 17.1 16.8 12.8 76 2.4 E 6 7 3 4 1021.1 - 0.0
25/09:00pm 16.8 16.3 12.5 76 2.4 S 7 9 4 5 1021.1 1021.1 0.0
25/08:30pm 17.1 16.3 13.0 77 2.3 S 9 11 5 6 1020.9 - 0.0
25/08:00pm 17.2 16.1 13.0 76 2.3 SSW 11 13 6 7 1020.6 - 0.0
25/07:30pm 17.5 16.2 12.6 73 2.7 SSW 11 13 6 7 1020.6 - 0.0
25/07:00pm 18.1 16.4 12.5 70 3.1 SSW 13 15 7 8 1020.2 - 0.0
25/06:30pm 19.2 16.6 11.9 62 4.0 SSW 17 24 9 13 1019.9 - 0.0
25/06:00pm 20.2 17.0 11.8 58 4.7 SSW 20 28 11 15 1019.7 1019.7 0.0
25/05:30pm 20.7 16.7 11.9 57 4.9 SSW 24 32 13 17 1019.5 - 0.0
25/05:00pm 21.6 17.0 11.1 51 5.8 SW 26 37 14 20 1019.4 - 0.0
25/04:30pm 21.1 17.2 12.0 56 5.1 SW 24 33 13 18 1019.4 - 0.0
25/04:00pm 22.5 17.9 12.3 52 5.8 SW 28 46 15 25 1019.4 - 0.0
25/03:54pm 23.1 18.4 12.1 50 6.2 SSW 28 46 15 25 1019.2 - 0.0
25/03:30pm 21.5 17.9 13.0 58 4.9 S 24 35 13 19 1019.3 - 0.0
25/03:00pm 23.4 18.8 12.4 50 6.3 SW 28 37 15 20 1019.2 1019.2 0.0
25/02:30pm 22.7 17.1 10.1 44 6.9 SW 30 44 16 24 1019.1 - 0.0
25/02:00pm 23.4 18.6 10.4 43 7.2 SSW 26 37 14 20 1019.1 - 0.0
25/01:30pm 23.8 18.0 10.8 44 7.2 SSW 32 39 17 21 1019.3 - 0.0
25/01:00pm 22.7 19.0 12.7 53 5.7 SW 24 35 13 19 1019.5 - 0.0
25/12:30pm 22.2 18.2 11.7 51 5.9 WSW 24 41 13 22 1019.6 - 0.0
25/12:00pm 22.4 18.2 11.2 49 6.2 SW 24 33 13 18 1019.8 1019.8 0.0
25/11:30am 22.8 18.7 10.2 44 6.9 SW 22 35 12 19 1019.6 - 0.0
25/11:00am 23.6 19.0 8.2 37 8.2 WSW 22 30 12 16 1019.7 - 0.0
25/10:30am 21.7 18.1 9.9 47 6.4 SSW 19 30 10 16 1019.9 - 0.0
25/10:00am 22.1 18.3 11.2 50 6.1 SW 22 35 12 19 1019.9 - 0.0
25/09:30am 21.7 18.3 9.2 44 6.7 SSW 17 22 9 12 1019.8 - 0.0
25/09:00am 21.9 17.8 8.7 42 7.0 S 20 32 11 17 1019.6 1019.6 0.0
25/08:30am 21.4 17.6 12.4 56 5.1 SSW 24 32 13 17 1019.2 - 0.0
25/08:00am 21.3 18.4 12.9 58 4.8 S 20 28 11 15 1019.1 - 0.0
25/07:30am 19.4 16.7 13.0 66 3.6 SSW 19 26 10 14 1018.8 - 0.0
25/07:00am 19.5 18.1 13.3 67 3.5 S 13 20 7 11 1018.6 - 0.0
25/06:30am 16.8 17.7 14.0 83 1.6 NNE 2 7 1 4 1018.2 - 0.0
25/06:00am 14.5 14.5 12.5 88 1.1 ENE 4 7 2 4 1017.9 1017.9 0.0
25/05:30am 13.2 13.4 11.8 91 0.7 E 2 7 1 4 1017.5 - 0.0
25/05:00am 13.5 13.3 11.9 90 0.9 ESE 4 9 2 5 1017.4 - 0.0
25/04:30am 16.8 16.0 14.0 83 1.6 SSW 11 15 6 8 1017.1 - 0.0
25/04:00am 17.1 16.4 14.2 83 1.7 SSW 11 13 6 7 1017.0 - 0.0
25/03:30am 16.8 15.9 13.8 82 1.7 S 11 15 6 8 1016.7 - 0.0
25/03:00am 16.6 17.9 14.0 84 1.5 CALM 0 0 0 0 1016.6 1016.5 0.0
25/02:30am 15.6 15.9 13.3 86 1.3 ENE 4 6 2 3 1016.4 - 0.0
25/02:00am 15.7 15.4 13.2 85 1.4 S 7 9 4 5 1016.2 - 0.0
25/01:30am 16.7 15.7 13.5 81 1.8 S 11 13 6 7 1016.0 - 0.0
25/01:00am 16.9 15.9 13.5 80 1.9 S 11 13 6 7 1016.2 - 0.0
25/12:30am 17.6 16.3 13.7 78 2.2 S 13 15 7 8 1016.2 - 0.0
25/12:00am 17.8 16.6 14.1 79 2.1 S 13 15 7 8 1016.3 1016.2 0.0
 
Date/Time
WST
Temp
°C
App
Temp
°C
Dew
Point
Rel
Hum
%
Delta-T
°C
Wind Press
QNH
hPa
Press
MSL
hPa
Rain
since 9 am
mm
Dir
 
Spd
km/h
Gust
km/h
Spd
kts
Gust
kts
24/11:30pm 17.7 16.6 14.2 80 2.0 S 13 17 7 9 1016.2 - 0.0
24/11:00pm 18.1 17.1 14.5 79 2.1 S 13 17 7 9 1016.4 - 0.0
24/10:30pm 18.3 16.9 14.5 78 2.2 S 15 19 8 10 1016.5 - 0.0
24/10:00pm 18.5 17.1 14.5 77 2.3 S 15 20 8 11 1016.5 - 0.0
24/09:30pm 18.9 17.1 14.4 75 2.6 S 17 22 9 12 1016.6 - 0.0
24/09:00pm 19.2 17.3 15.1 77 2.4 SSW 19 24 10 13 1016.6 1016.5 0.0
24/08:30pm 19.4 17.4 15.4 77 2.4 S 20 30 11 16 1016.3 - 0.0
24/08:00pm 19.2 17.1 15.3 78 2.3 S 20 28 11 15 1015.8 - 0.0
24/07:30pm 19.4 16.5 15.2 76 2.5 S 24 33 13 18 1015.6 - 0.0
24/07:00pm 19.6 17.5 15.3 76 2.5 SSW 20 28 11 15 1015.4 - 0.0
24/06:30pm 19.7 17.6 15.3 76 2.6 S 20 30 11 16 1015.2 - 0.0
24/06:00pm 20.4 16.4 15.1 71 3.1 SSW 30 37 16 20 1015.0 1014.9 0.0
24/05:30pm 21.2 17.4 14.6 66 3.9 SSW 28 33 15 18 1014.6 - 0.0
24/05:00pm 21.7 17.7 14.2 62 4.4 S 28 35 15 19 1014.4 - 0.0
24/04:30pm 22.5 17.2 12.6 53 5.6 SSW 32 39 17 21 1014.3 - 0.0
24/04:00pm 22.9 17.6 11.3 48 6.5 SSW 30 37 16 20 1014.3 - 0.0
24/03:30pm 24.1 19.2 10.1 41 7.7 SW 26 41 14 22 1014.1 - 0.0
24/03:00pm 24.2 19.2 9.5 39 8.0 SSW 26 39 14 21 1014.3 1014.2 0.0
24/02:30pm 23.9 18.8 10.6 43 7.4 SW 28 37 15 20 1014.3 - 0.0
24/02:00pm 25.3 21.0 10.9 40 8.1 SSW 24 32 13 17 1014.4 - 0.0
24/01:30pm 23.7 19.0 10.8 44 7.2 SSW 26 33 14 18 1014.5 - 0.0
24/01:00pm 24.8 20.7 11.6 43 7.5 SSW 24 32 13 17 1014.7 - 0.0
24/12:30pm 23.7 18.9 11.7 47 6.8 SSW 28 33 15 18 1014.9 - 0.0
24/12:00pm 23.2 19.0 12.3 50 6.2 SW 26 32 14 17 1015.0 1014.9 0.0
24/11:30am 23.9 19.9 11.9 47 6.8 SW 24 32 13 17 1015.2 - 0.0
24/11:00am 24.2 20.8 12.4 47 6.8 SW 22 28 12 15 1015.4 - 0.0
24/10:30am 24.3 21.5 12.7 48 6.7 SW 19 28 10 15 1015.6 - 0.0
24/10:00am 25.2 23.6 11.7 43 7.7 SSW 11 20 6 11 1015.9 - 0.0
24/09:30am 23.0 21.6 11.0 46 6.7 S 9 17 5 9 1016.2 - 0.0
24/09:00am 22.2 21.0 11.7 51 5.9 SSE 9 13 5 7 1016.5 1016.4 0.2
24/08:30am 20.6 19.1 12.0 57 4.8 ESE 11 17 6 9 1016.6 - 0.2
24/08:00am 18.9 17.2 12.4 66 3.6 E 13 19 7 10 1016.6 - 0.2
24/07:30am 17.1 15.8 12.4 74 2.6 ESE 11 17 6 9 1016.7 - 0.2
24/07:00am 15.2 15.0 12.9 86 1.3 SSE 6 9 3 5 1016.7 - 0.2
24/06:30am 12.8 13.3 11.7 93 0.6 CALM 0 0 0 0 1016.7 - 0.2
24/06:00am 11.5 11.7 10.7 95 0.4 CALM 0 0 0 0 1016.6 1016.5 0.2
24/05:30am 11.2 11.3 10.2 94 0.5 CALM 0 0 0 0 1016.4 - 0.2
24/05:00am 11.0 10.3 10.0 93 0.5 ENE 4 7 2 4 1016.3 - 0.2
24/04:30am 11.0 9.7 10.1 94 0.5 E 7 7 4 4 1016.3 - 0.2
24/04:00am 11.6 10.5 10.6 94 0.5 SE 7 9 4 5 1016.3 - 0.2
24/03:30am 12.0 10.6 10.9 93 0.6 SE 9 11 5 6 1016.4 - 0.2
24/03:00am 12.5 11.2 11.4 93 0.6 SSE 9 11 5 6 1016.4 1016.3 0.2
24/02:30am 12.8 11.6 11.7 93 0.6 SSE 9 11 5 6 1016.5 - 0.2
24/02:00am 12.8 11.2 11.6 92 0.6 SE 11 13 6 7 1016.4 - 0.2
24/01:30am 12.8 11.2 11.5 92 0.7 SSE 11 11 6 6 1016.7 - 0.2
24/01:00am 13.4 11.8 11.7 89 0.9 SSE 11 13 6 7 1017.0 - 0.2
24/12:30am 13.5 11.6 11.8 89 0.9 SSE 13 15 7 8 1016.8 - 0.2
24/12:00am 14.2 12.4 12.2 88 1.1 SE 13 15 7 8 1016.8 1016.7 0.2
 
Date/Time
WST
Temp
°C
App
Temp
°C
Dew
Point
Rel
Hum
%
Delta-T
°C
Wind Press
QNH
hPa
Press
MSL
hPa
Rain
since 9 am
mm
Dir
 
Spd
km/h
Gust
km/h
Spd
kts
Gust
kts
23/11:30pm 13.8 12.0 12.0 89 1.0 SE 13 15 7 8 1016.8 - 0.2
23/11:00pm 14.5 13.2 12.5 88 1.1 SE 11 13 6 7 1017.2 - 0.2
23/10:30pm 15.0 13.4 12.9 87 1.2 SE 13 15 7 8 1017.2 - 0.2
23/10:00pm 15.3 14.5 12.8 85 1.4 SSE 9 11 5 6 1017.4 - 0.2
23/09:30pm 16.7 15.6 13.1 79 2.0 SSE 11 13 6 7 1017.6 - 0.2
23/09:00pm 17.4 15.9 13.1 76 2.4 S 13 17 7 9 1017.5 1017.4 0.2
23/08:30pm 17.8 16.0 13.4 75 2.5 S 15 20 8 11 1017.4 - 0.2
23/08:00pm 18.3 16.2 13.6 74 2.7 S 17 22 9 12 1017.2 - 0.2
23/07:30pm 18.5 16.0 13.4 72 2.9 S 19 24 10 13 1017.1 - 0.2
23/07:00pm 18.9 16.8 13.6 71 3.0 S 17 24 9 13 1017.0 - 0.2
23/06:30pm 19.5 16.3 13.0 66 3.7 S 22 28 12 15 1016.9 - 0.2
23/06:00pm 20.4 17.6 13.2 63 4.1 S 20 30 11 16 1016.6 1016.5 0.2
23/05:30pm 21.1 18.2 13.0 60 4.6 S 20 30 11 16 1016.4 - 0.2
23/05:00pm 21.8 18.6 13.1 57 5.0 S 22 28 12 15 1016.3 - 0.2
23/04:30pm 22.3 18.9 13.7 58 5.0 S 24 35 13 19 1016.2 - 0.2
23/04:00pm 22.9 19.2 12.8 53 5.8 SSW 24 33 13 18 1016.3 - 0.2
23/03:30pm 22.4 19.0 13.7 58 5.1 SW 24 33 13 18 1016.4 - 0.2
23/03:00pm 23.1 18.9 13.6 55 5.5 WSW 28 35 15 19 1016.2 1016.1 0.2
23/02:30pm 23.7 20.1 12.9 50 6.2 WSW 24 30 13 16 1016.3 - 0.2
23/02:00pm 24.0 20.1 12.2 47 6.7 WSW 24 30 13 16 1016.4 - 0.2
23/01:30pm 24.2 21.0 11.8 45 7.0 SW 20 30 11 16 1016.5 - 0.2
23/01:00pm 24.0 20.9 11.7 46 7.0 W 19 28 10 15 1016.7 - 0.2
23/12:30pm 23.4 20.3 12.1 49 6.4 W 20 32 11 17 1016.9 - 0.2
23/12:00pm 22.8 19.2 13.2 54 5.5 WSW 24 30 13 16 1017.0 1016.9 0.2
23/11:30am 23.8 20.8 12.7 49 6.4 WSW 20 26 11 14 1017.3 - 0.2
23/11:00am 23.2 20.7 12.3 50 6.2 WSW 17 22 9 12 1017.5 - 0.0
23/10:30am 22.8 20.2 11.9 50 6.1 WSW 17 26 9 14 1017.6 - 0.0
23/10:00am 22.5 20.2 13.1 55 5.4 WSW 17 22 9 12 1017.7 - 0.0
23/09:30am 22.1 20.6 13.2 57 5.1 W 13 19 7 10 1017.6 - 0.0
23/09:00am 21.9 20.1 13.2 57 5.0 W 15 22 8 12 1017.5 1017.4 1.6
23/08:30am 21.0 18.5 12.3 57 4.9 WSW 17 20 9 11 1017.2 - 1.6
23/08:00am 20.3 18.8 13.1 63 4.1 WSW 13 17 7 9 1016.9 - 1.6
23/07:30am 18.9 19.5 15.7 82 1.9 NNE 7 11 4 6 1016.6 - 1.6
23/07:00am 17.7 17.8 15.5 87 1.3 NNE 9 11 5 6 1016.3 - 1.6
23/06:30am 15.9 15.6 14.3 90 0.9 N 9 15 5 8 1016.0 - 1.6
23/06:00am 15.0 14.5 13.9 93 0.6 N 9 11 5 6 1015.7 1015.6 1.6
23/05:30am 14.9 14.8 13.8 93 0.6 NNE 7 11 4 6 1015.5 - 1.6
23/05:00am 16.2 16.4 14.6 90 0.9 N 7 9 4 5 1015.4 - 1.6
23/04:30am 17.2 17.1 15.0 87 1.3 NW 9 11 5 6 1015.4 - 1.6
23/04:19am 17.5 16.6 14.9 85 1.5 WNW 13 17 7 9 1015.5 - 1.6
23/04:03am 17.0 17.2 14.6 86 1.4 NNW 7 15 4 8 1015.6 - 1.6
23/04:00am 16.0 16.0 13.7 86 1.3 N 6 11 3 6 1015.6 - 1.6
23/03:30am 17.1 16.6 13.9 81 1.8 W 9 11 5 6 1015.5 - 1.4
23/03:00am 17.4 16.2 14.1 81 1.9 W 13 17 7 9 1015.8 1015.7 1.4
23/02:30am 17.7 16.6 14.3 80 2.0 W 13 20 7 11 1016.0 - 1.4
23/02:00am 17.3 16.5 14.0 81 1.9 W 11 13 6 7 1016.0 - 1.4
23/01:30am 17.6 16.3 13.8 78 2.2 W 13 15 7 8 1016.1 - 1.4
23/01:00am 17.8 17.0 14.0 78 2.2 W 11 15 6 8 1016.2 - 1.4
23/12:30am 18.1 16.5 14.0 77 2.3 W 15 19 8 10 1016.4 - 1.4
23/12:00am 18.4 17.0 14.5 78 2.3 W 15 20 8 11 1016.5 1016.4 1.4
 
Date/Time
WST
Temp
°C
App
Temp
°C
Dew
Point
Rel
Hum
%
Delta-T
°C
Wind Press
QNH
hPa
Press
MSL
hPa
Rain
since 9 am
mm
Dir
 
Spd
km/h
Gust
km/h
Spd
kts
Gust
kts
22/11:30pm 18.4 17.8 14.7 79 2.1 W 11 19 6 10 1016.6 - 1.4
22/11:00pm 18.2 17.5 14.2 77 2.3 WNW 11 15 6 8 1016.8 - 1.4
22/10:30pm 17.6 16.4 13.9 79 2.1 WNW 13 15 7 8 1017.0 - 1.4
22/10:00pm 18.6 17.5 14.3 76 2.5 W 13 19 7 10 1017.0 - 1.4

Other Formats:

Comma delimited format used in spreadsheet applications
http://www.bom.gov.au/fwo/IDW60801/IDW60801.94403.axf

JavaScript Object Notation format (JSON) in row-major order
http://www.bom.gov.au/fwo/IDW60801/IDW60801.94403.json